Time;durP1;ratioP1;P1;durP2;ratioP2;P2;SDS_P1;SDS_P2;PMS_P1;PMS_P2;Temp;Humidity;BMP_temperature;BMP_pressure;BME280_temperature;BME280_humidity;BME280_pressure;Samples;Min_cycle;Max_cycle;Signal;HPM_P1;HPM_P2
2023/03/29 00:01:20;;;;;;;9.00;6.13;;;3.10;1.00;;;;;;4972181;28;20260;-81
2023/03/29 00:03:50;;;;;;;9.45;5.68;;;3.10;1.00;;;;;;4972850;28;20221;-82
2023/03/29 00:06:30;;;;;;;10.57;6.05;;;3.20;1.00;;;;;;4974125;28;20586;-82
2023/03/29 00:08:57;;;;;;;10.27;5.10;;;3.30;1.00;;;;;;4972809;28;20271;-81
2023/03/29 00:11:26;;;;;;;8.45;6.28;;;3.30;1.00;;;;;;4971675;28;20439;-80
2023/03/29 00:13:54;;;;;;;12.20;8.30;;;3.30;1.00;;;;;;4957454;28;20245;-81
2023/03/29 00:16:23;;;;;;;10.50;6.40;;;3.30;1.00;;;;;;4945355;28;20245;-80
2023/03/29 00:18:50;;;;;;;7.45;5.45;;;3.30;1.00;;;;;;4966946;28;20240;-80
2023/03/29 00:21:17;;;;;;;8.93;5.55;;;3.30;1.00;;;;;;4964313;28;20260;-81
2023/03/29 00:23:49;;;;;;;12.88;5.70;;;3.40;1.00;;;;;;4964757;28;20237;-80
2023/03/29 00:26:16;;;;;;;9.07;5.30;;;3.30;1.00;;;;;;4960117;28;20884;-81
2023/03/29 00:28:46;;;;;;;8.90;5.95;;;3.30;1.00;;;;;;4958176;28;20229;-80
2023/03/29 00:31:17;;;;;;;7.38;5.25;;;3.30;1.00;;;;;;4961423;28;20232;-79
2023/03/29 00:33:46;;;;;;;8.55;5.50;;;3.30;1.00;;;;;;4964669;28;20957;-80
2023/03/29 00:36:14;;;;;;;7.40;6.00;;;3.30;1.00;;;;;;4966591;28;20240;-80
2023/03/29 00:38:44;;;;;;;9.35;5.57;;;3.30;1.00;;;;;;4961680;28;20241;-81
2023/03/29 00:41:11;;;;;;;12.10;6.00;;;3.30;1.00;;;;;;4949447;28;20237;-80
2023/03/29 00:43:57;;;;;;;12.95;6.53;;;3.30;1.00;;;;;;4960179;28;20296;-80
2023/03/29 00:46:26;;;;;;;11.57;5.50;;;3.30;1.00;;;;;;4938665;28;21045;-79
2023/03/29 00:48:58;;;;;;;9.30;5.53;;;3.20;1.00;;;;;;4962365;28;20241;-80
2023/03/29 00:51:30;;;;;;;10.93;5.30;;;3.30;1.00;;;;;;4961730;28;21188;-79
2023/03/29 00:54:03;;;;;;;9.38;5.53;;;3.20;1.00;;;;;;4959936;28;20666;-80
2023/03/29 00:56:35;;;;;;;7.82;5.47;;;3.20;1.00;;;;;;4960259;28;20236;-81
2023/03/29 00:59:05;;;;;;;6.60;4.72;;;3.30;1.00;;;;;;4952921;28;20244;-80
2023/03/29 01:04:18;;;;;;;9.45;5.30;;;3.30;1.00;;;;;;4923632;28;20268;-81
2023/03/29 01:06:49;;;;;;;9.23;5.32;;;3.30;1.00;;;;;;4934031;28;20237;-80
2023/03/29 01:09:19;;;;;;;7.25;4.78;;;3.40;1.00;;;;;;4930824;28;20376;-79
2023/03/29 01:11:51;;;;;;;9.43;6.15;;;3.40;1.00;;;;;;4934528;28;20241;-78
2023/03/29 01:14:23;;;;;;;7.50;5.53;;;3.40;1.00;;;;;;4931402;28;20290;-80
2023/03/29 01:16:52;;;;;;;11.23;5.10;;;3.30;1.00;;;;;;4930873;28;20708;-80
2023/03/29 01:19:25;;;;;;;6.82;4.82;;;3.30;1.00;;;;;;4934537;28;20277;-80
2023/03/29 01:22:00;;;;;;;8.73;4.80;;;3.30;1.00;;;;;;4933733;28;21160;-80
2023/03/29 01:24:40;;;;;;;7.18;4.63;;;3.40;1.00;;;;;;4930201;28;21027;-82
2023/03/29 01:27:17;;;;;;;8.25;4.38;;;3.40;1.00;;;;;;4933189;28;20251;-83
2023/03/29 01:29:52;;;;;;;10.05;4.55;;;3.40;1.00;;;;;;4943088;28;20265;-84
2023/03/29 01:32:24;;;;;;;9.85;4.93;;;3.30;1.00;;;;;;4931216;28;20247;-84
2023/03/29 01:34:57;;;;;;;6.22;4.15;;;3.30;1.00;;;;;;4926831;28;20241;-80
2023/03/29 01:37:29;;;;;;;9.75;5.45;;;3.30;1.00;;;;;;4928977;28;21012;-81
2023/03/29 01:39:56;;;;;;;6.00;5.00;;;3.30;1.00;;;;;;4909881;28;20252;-84
2023/03/29 01:42:35;;;;;;;9.52;5.35;;;3.40;1.00;;;;;;4931672;28;20300;-84
2023/03/29 01:45:11;;;;;;;6.50;4.45;;;3.40;1.00;;;;;;4929198;28;20247;-84
2023/03/29 01:47:46;;;;;;;9.25;4.53;;;3.40;1.00;;;;;;4931606;28;21062;-83
2023/03/29 01:50:18;;;;;;;9.15;4.47;;;3.40;1.00;;;;;;4933540;28;20248;-83
2023/03/29 01:52:52;;;;;;;6.43;4.68;;;3.40;1.00;;;;;;4932401;28;20246;-83
2023/03/29 01:55:25;;;;;;;10.73;4.90;;;3.40;1.00;;;;;;4931086;28;20328;-84
2023/03/29 01:57:53;;;;;;;6.47;5.00;;;3.50;1.00;;;;;;4931886;28;20277;-83
2023/03/29 02:00:26;;;;;;;8.30;5.32;;;3.50;1.00;;;;;;4939040;28;20237;-84
2023/03/29 02:02:57;;;;;;;8.63;5.10;;;3.50;1.00;;;;;;4927682;28;20713;-84
2023/03/29 02:05:25;;;;;;;6.68;4.47;;;3.40;1.00;;;;;;4929795;28;20241;-84
2023/03/29 02:07:54;;;;;;;8.13;5.20;;;3.40;1.00;;;;;;4931888;28;20709;-84
2023/03/29 02:10:23;;;;;;;7.93;4.80;;;3.40;1.00;;;;;;4929869;28;20752;-83
2023/03/29 02:12:50;;;;;;;11.00;7.22;;;3.50;1.00;;;;;;4929195;28;20245;-82
2023/03/29 02:15:19;;;;;;;7.50;5.40;;;3.40;1.00;;;;;;4928950;28;20245;-83
2023/03/29 02:17:49;;;;;;;8.75;5.75;;;3.40;1.00;;;;;;4927431;28;20237;-79
2023/03/29 02:20:22;;;;;;;10.48;5.40;;;3.40;1.00;;;;;;4914934;28;20248;-82
2023/03/29 02:22:57;;;;;;;8.90;5.55;;;3.40;1.00;;;;;;4931528;28;20332;-82
2023/03/29 02:25:24;;;;;;;9.18;5.30;;;3.30;1.00;;;;;;4925987;28;20332;-81
2023/03/29 02:27:52;;;;;;;6.55;5.40;;;3.30;1.00;;;;;;4932501;28;20308;-81
2023/03/29 02:30:20;;;;;;;7.40;5.32;;;3.30;1.00;;;;;;4932137;28;20268;-82
2023/03/29 02:32:54;;;;;;;9.48;6.53;;;3.20;1.00;;;;;;4931165;28;20274;-80
2023/03/29 02:35:33;;;;;;;8.40;6.57;;;3.20;1.00;;;;;;4929031;28;20345;-80
2023/03/29 02:38:02;;;;;;;13.02;6.85;;;3.20;1.00;;;;;;4926657;28;20687;-81
2023/03/29 02:40:33;;;;;;;9.90;6.75;;;3.20;1.00;;;;;;4928628;28;20244;-83
2023/03/29 02:43:01;;;;;;;9.38;6.50;;;3.10;1.00;;;;;;4927370;28;20237;-82
2023/03/29 02:45:30;;;;;;;7.72;6.28;;;3.10;1.00;;;;;;4927310;28;20270;-82
2023/03/29 02:48:05;;;;;;;10.48;7.00;;;3.10;1.00;;;;;;4923621;28;20236;-82
2023/03/29 02:50:36;;;;;;;9.52;7.25;;;3.00;1.00;;;;;;4928198;28;20236;-83
2023/03/29 02:53:09;;;;;;;11.93;7.40;;;2.90;1.00;;;;;;4929769;28;21547;-82
2023/03/29 02:55:37;;;;;;;11.57;7.78;;;2.90;1.00;;;;;;4927218;28;20249;-79
2023/03/29 02:58:07;;;;;;;12.30;8.07;;;2.90;1.00;;;;;;4925049;28;20248;-81
2023/03/29 03:00:37;;;;;;;13.70;7.40;;;2.80;1.00;;;;;;4927395;28;20245;-81
2023/03/29 03:03:07;;;;;;;10.80;8.23;;;2.80;1.00;;;;;;4932907;28;20272;-81
2023/03/29 03:05:35;;;;;;;8.18;6.70;;;2.80;1.00;;;;;;4931224;28;20251;-81
2023/03/29 03:08:06;;;;;;;10.45;8.13;;;2.80;1.00;;;;;;4932263;28;20252;-80
2023/03/29 03:10:33;;;;;;;9.38;7.25;;;2.70;1.00;;;;;;4932975;28;20264;-80
2023/03/29 03:13:01;;;;;;;11.38;7.75;;;2.80;1.00;;;;;;4934038;28;20751;-81
2023/03/29 03:15:28;;;;;;;11.20;7.85;;;2.70;1.00;;;;;;4932631;28;20245;-82
2023/03/29 03:17:55;;;;;;;11.27;8.65;;;2.60;1.00;;;;;;4930953;28;20242;-81
2023/03/29 03:20:23;;;;;;;11.02;7.85;;;2.50;1.00;;;;;;4929486;28;20986;-82
2023/03/29 03:22:50;;;;;;;11.48;7.05;;;2.40;1.00;;;;;;4932140;28;21147;-81
2023/03/29 03:25:19;;;;;;;10.68;7.45;;;2.40;1.00;;;;;;4932919;28;20364;-82
2023/03/29 03:27:47;;;;;;;11.30;8.05;;;2.40;1.00;;;;;;4928681;28;20807;-81
2023/03/29 03:30:15;;;;;;;17.13;7.53;;;2.40;1.00;;;;;;4927304;28;21074;-81
2023/03/29 03:32:43;;;;;;;14.35;7.00;;;2.20;1.00;;;;;;4927317;28;20674;-80
2023/03/29 03:35:11;;;;;;;11.23;7.03;;;2.20;1.00;;;;;;4927695;28;20294;-81
2023/03/29 03:37:41;;;;;;;12.57;7.50;;;2.20;1.00;;;;;;4924688;28;20340;-82
2023/03/29 03:40:12;;;;;;;14.00;7.13;;;2.20;1.00;;;;;;4928710;28;20378;-83
2023/03/29 03:42:40;;;;;;;13.43;7.10;;;2.20;1.00;;;;;;4934749;28;20260;-82
2023/03/29 03:45:08;;;;;;;13.85;7.20;;;2.20;1.00;;;;;;4931807;28;20238;-83
2023/03/29 03:47:37;;;;;;;10.27;6.50;;;2.20;1.00;;;;;;4931956;28;20256;-83
2023/03/29 03:50:07;;;;;;;11.73;7.65;;;2.20;1.00;;;;;;4925184;28;20271;-82
2023/03/29 03:52:35;;;;;;;14.35;7.47;;;2.30;1.00;;;;;;4923795;28;20751;-81
2023/03/29 03:55:03;;;;;;;11.15;5.75;;;2.20;1.00;;;;;;4926933;28;20249;-82
2023/03/29 03:57:31;;;;;;;9.43;5.90;;;2.20;1.00;;;;;;4928517;28;20249;-82
2023/03/29 03:59:58;;;;;;;8.93;6.22;;;2.20;1.00;;;;;;4930860;28;20278;-82
2023/03/29 04:02:27;;;;;;;9.73;5.55;;;2.20;1.00;;;;;;4930499;28;20329;-82
2023/03/29 04:04:54;;;;;;;9.80;5.85;;;2.20;1.00;;;;;;4917953;28;20238;-81
2023/03/29 04:07:21;;;;;;;10.43;5.47;;;2.30;1.00;;;;;;4927649;28;21422;-81
2023/03/29 04:09:49;;;;;;;8.65;4.95;;;2.30;1.00;;;;;;4931695;28;20297;-80
2023/03/29 04:12:17;;;;;;;9.13;5.45;;;2.30;1.00;;;;;;4927199;28;20252;-82
2023/03/29 04:14:46;;;;;;;9.80;5.53;;;2.40;1.00;;;;;;4925152;28;22911;-81
2023/03/29 04:17:13;;;;;;;9.00;5.65;;;2.40;1.00;;;;;;4930187;28;20319;-81
2023/03/29 04:19:40;;;;;;;5.78;5.18;;;2.50;1.00;;;;;;4932435;28;20717;-83
2023/03/29 04:22:07;;;;;;;8.10;5.75;;;2.50;1.00;;;;;;4929470;28;20332;-82
2023/03/29 04:24:34;;;;;;;9.82;4.90;;;2.50;1.00;;;;;;4929723;28;20237;-83
2023/03/29 04:27:01;;;;;;;11.70;5.95;;;2.40;1.00;;;;;;4942163;28;20253;-84
2023/03/29 04:29:29;;;;;;;6.85;5.45;;;2.40;1.00;;;;;;4932423;28;20248;-83
2023/03/29 04:31:56;;;;;;;14.27;6.05;;;2.40;1.00;;;;;;4931390;28;20252;-82
2023/03/29 04:34:25;;;;;;;11.30;4.90;;;2.30;1.00;;;;;;4931409;28;20246;-83
2023/03/29 04:36:52;;;;;;;8.20;5.90;;;2.30;1.00;;;;;;4927509;28;20245;-82
2023/03/29 04:39:19;;;;;;;8.93;4.90;;;2.40;1.00;;;;;;4931570;28;21042;-83
2023/03/29 04:41:47;;;;;;;13.93;6.28;;;2.40;1.00;;;;;;4926627;28;20242;-80
2023/03/29 04:44:15;;;;;;;14.82;6.20;;;2.30;1.00;;;;;;4925523;28;20244;-83
2023/03/29 04:46:43;;;;;;;10.27;8.18;;;2.30;1.00;;;;;;4928683;28;20237;-83
2023/03/29 04:49:10;;;;;;;9.52;5.60;;;2.40;1.00;;;;;;4925338;28;20602;-81
2023/03/29 04:51:37;;;;;;;7.15;4.80;;;2.40;1.00;;;;;;4930746;28;20265;-81
2023/03/29 04:54:05;;;;;;;7.95;4.20;;;2.40;1.00;;;;;;4926516;28;20262;-83
2023/03/29 04:56:33;;;;;;;10.98;5.30;;;2.30;1.00;;;;;;4924608;28;20328;-82
2023/03/29 04:59:00;;;;;;;12.68;5.97;;;2.40;1.00;;;;;;4923242;28;20942;-79
2023/03/29 05:01:27;;;;;;;15.45;6.93;;;2.40;1.00;;;;;;4926145;28;20242;-80
2023/03/29 05:03:56;;;;;;;11.45;5.15;;;2.40;1.00;;;;;;4923778;28;20237;-81
2023/03/29 05:06:23;;;;;;;8.82;4.85;;;2.40;1.00;;;;;;4926653;28;20320;-81
2023/03/29 05:08:51;;;;;;;9.23;4.82;;;2.40;1.00;;;;;;4921219;28;21151;-81
2023/03/29 05:11:20;;;;;;;11.75;6.93;;;2.40;1.00;;;;;;4927656;28;20245;-81
2023/03/29 05:13:47;;;;;;;11.68;5.95;;;2.40;1.00;;;;;;4925392;28;20241;-80
2023/03/29 05:16:14;;;;;;;8.45;5.30;;;2.50;1.00;;;;;;4928600;28;20308;-81
2023/03/29 05:18:42;;;;;;;14.98;6.15;;;2.50;1.00;;;;;;4906768;29;21104;-81
2023/03/29 05:21:10;;;;;;;8.30;6.10;;;2.60;1.00;;;;;;4932324;28;20243;-85
2023/03/29 05:23:38;;;;;;;12.75;6.20;;;2.70;1.00;;;;;;4940637;28;20241;-85
2023/03/29 05:26:08;;;;;;;10.85;4.88;;;2.80;1.00;;;;;;4935347;28;20252;-84
2023/03/29 05:28:35;;;;;;;11.73;5.53;;;2.90;1.00;;;;;;4934732;28;20249;-86
2023/03/29 05:31:04;;;;;;;10.25;5.75;;;2.90;1.00;;;;;;4935007;28;20237;-84
2023/03/29 05:33:33;;;;;;;11.82;6.00;;;3.00;1.00;;;;;;4934303;28;20237;-83
2023/03/29 05:36:01;;;;;;;8.35;5.43;;;3.00;1.00;;;;;;4917370;28;20350;-84
2023/03/29 05:38:31;;;;;;;8.25;4.63;;;3.10;1.00;;;;;;4930275;28;20263;-83
2023/03/29 05:40:58;;;;;;;10.30;5.18;;;3.10;1.00;;;;;;4931394;28;20249;-86
2023/03/29 05:43:26;;;;;;;12.60;5.88;;;3.10;1.00;;;;;;4934538;28;20268;-83
2023/03/29 05:45:53;;;;;;;13.52;5.40;;;3.20;1.00;;;;;;4922157;28;20237;-84
2023/03/29 05:48:22;;;;;;;73.65;61.75;;;3.20;1.00;;;;;;4935357;28;20252;-83
2023/03/29 05:50:52;;;;;;;8.20;5.55;;;3.30;1.00;;;;;;4936803;28;23099;-83
2023/03/29 05:53:20;;;;;;;9.20;5.47;;;3.30;1.00;;;;;;4934513;28;20386;-83
2023/03/29 05:55:50;;;;;;;12.30;7.20;;;3.40;1.00;;;;;;4934661;28;20420;-81
2023/03/29 05:58:20;;;;;;;7.32;4.95;;;3.50;1.00;;;;;;4939543;28;20248;-84
2023/03/29 06:00:50;;;;;;;11.35;5.93;;;3.40;1.00;;;;;;4930758;28;20337;-80
2023/03/29 06:03:23;;;;;;;14.80;6.00;;;3.60;1.00;;;;;;4937301;28;20242;-83
2023/03/29 06:05:58;;;;;;;8.35;5.35;;;3.60;1.00;;;;;;4931789;28;21071;-84
2023/03/29 06:08:26;;;;;;;10.50;5.22;;;3.80;1.00;;;;;;4931997;28;20368;-84
2023/03/29 06:11:00;;;;;;;7.78;5.13;;;3.80;1.00;;;;;;4935191;28;20236;-84
2023/03/29 06:13:28;;;;;;;10.57;6.47;;;3.70;1.00;;;;;;4941734;28;20241;-84
2023/03/29 06:15:55;;;;;;;12.10;6.18;;;3.70;1.00;;;;;;4937724;28;20237;-83
2023/03/29 06:18:23;;;;;;;9.25;5.15;;;3.90;1.00;;;;;;4935510;28;20242;-83
2023/03/29 06:20:51;;;;;;;14.52;7.00;;;3.90;1.00;;;;;;4934615;28;20436;-86
2023/03/29 06:23:19;;;;;;;11.88;6.07;;;3.90;1.00;;;;;;4938493;28;20415;-84
2023/03/29 06:25:47;;;;;;;12.85;5.63;;;4.10;1.00;;;;;;4936533;28;20296;-83
2023/03/29 06:28:17;;;;;;;8.57;5.00;;;4.20;1.00;;;;;;4933349;28;20238;-83
2023/03/29 06:30:47;;;;;;;10.48;5.82;;;4.30;1.00;;;;;;4924849;28;20718;-84
2023/03/29 06:33:15;;;;;;;9.23;5.88;;;4.40;1.00;;;;;;4928912;28;20947;-78
2023/03/29 06:35:43;;;;;;;7.05;5.40;;;4.50;1.00;;;;;;4926824;28;20241;-76
2023/03/29 06:38:10;;;;;;;18.20;5.95;;;4.70;1.00;;;;;;4927879;28;20322;-77
2023/03/29 06:40:37;;;;;;;12.00;7.55;;;4.80;1.00;;;;;;4926816;28;20265;-78
2023/03/29 06:43:05;;;;;;;6.63;5.25;;;4.80;1.00;;;;;;4922421;28;20238;-78
2023/03/29 06:45:36;;;;;;;28.23;7.60;;;4.90;1.00;;;;;;4923398;28;20246;-78
2023/03/29 06:48:04;;;;;;;7.00;4.88;;;4.90;1.00;;;;;;4926642;28;20245;-77
2023/03/29 06:50:32;;;;;;;8.60;5.50;;;4.90;1.00;;;;;;4921868;28;20329;-76
2023/03/29 06:52:59;;;;;;;8.55;5.78;;;4.90;1.00;;;;;;4916395;28;20273;-77
2023/03/29 06:55:27;;;;;;;11.85;5.57;;;5.00;1.00;;;;;;4919431;28;20353;-79
2023/03/29 06:57:55;;;;;;;9.75;5.80;;;5.00;1.00;;;;;;4924526;28;21625;-79
2023/03/29 07:00:27;;;;;;;12.23;6.15;;;5.20;1.00;;;;;;4907214;28;21296;-78
2023/03/29 07:02:59;;;;;;;11.68;5.85;;;5.10;1.00;;;;;;4918396;28;20269;-79
2023/03/29 07:05:27;;;;;;;6.60;4.80;;;5.20;1.00;;;;;;4922811;28;20238;-79
2023/03/29 07:07:55;;;;;;;9.80;4.90;;;5.20;1.00;;;;;;4920643;28;20253;-79
2023/03/29 07:10:24;;;;;;;9.35;4.75;;;5.20;1.00;;;;;;4924520;28;20336;-78
2023/03/29 07:12:52;;;;;;;9.18;5.72;;;5.20;1.00;;;;;;4924913;28;20248;-79
2023/03/29 07:15:20;;;;;;;8.77;5.00;;;5.20;1.00;;;;;;4929637;28;20930;-79
2023/03/29 07:17:47;;;;;;;6.07;4.30;;;5.30;1.00;;;;;;4933154;29;20324;-80
2023/03/29 07:20:16;;;;;;;7.70;5.38;;;5.30;1.00;;;;;;4931687;28;20247;-79
2023/03/29 07:22:45;;;;;;;8.07;4.70;;;5.40;1.00;;;;;;4937154;29;20248;-80
2023/03/29 07:25:14;;;;;;;7.63;5.53;;;5.50;1.00;;;;;;4933233;28;20328;-78
2023/03/29 07:27:42;;;;;;;8.77;4.78;;;5.70;1.00;;;;;;4932538;28;20242;-80
2023/03/29 07:30:11;;;;;;;11.32;5.30;;;5.90;1.00;;;;;;4934777;28;20238;-80
2023/03/29 07:32:40;;;;;;;8.27;5.10;;;6.10;1.00;;;;;;4933504;28;20241;-80
2023/03/29 07:35:08;;;;;;;6.95;5.03;;;6.00;1.00;;;;;;4932636;28;20333;-80
2023/03/29 07:37:41;;;;;;;11.68;4.72;;;6.00;1.00;;;;;;4932343;28;20245;-79
2023/03/29 07:40:14;;;;;;;8.77;5.32;;;6.20;1.00;;;;;;4929995;28;20820;-78
2023/03/29 07:42:43;;;;;;;7.20;4.93;;;6.40;1.00;;;;;;4925420;28;20287;-78
2023/03/29 07:45:12;;;;;;;9.15;5.90;;;6.40;1.00;;;;;;4927575;28;20341;-78
2023/03/29 07:47:39;;;;;;;9.13;5.78;;;6.40;1.00;;;;;;4933982;29;21055;-77
2023/03/29 07:50:13;;;;;;;7.82;4.80;;;6.40;1.00;;;;;;4922417;28;20331;-79
2023/03/29 07:52:44;;;;;;;6.63;4.93;;;6.70;1.00;;;;;;4927749;28;20247;-77
2023/03/29 07:55:14;;;;;;;9.75;5.32;;;7.00;1.00;;;;;;4902460;29;20475;-78
2023/03/29 07:57:49;;;;;;;8.07;5.18;;;7.10;1.00;;;;;;4931016;28;20327;-77
2023/03/29 08:00:18;;;;;;;8.60;5.28;;;7.30;1.00;;;;;;4928398;29;20237;-79
2023/03/29 08:02:51;;;;;;;6.73;5.50;;;7.40;1.00;;;;;;4924684;28;20241;-79
2023/03/29 08:05:19;;;;;;;6.80;5.57;;;7.60;1.00;;;;;;4931426;28;20564;-77
2023/03/29 08:07:49;;;;;;;8.27;5.70;;;7.70;1.00;;;;;;4929511;28;20495;-79
2023/03/29 08:10:18;;;;;;;7.17;5.17;;;7.90;1.00;;;;;;4933888;28;20471;-76
2023/03/29 08:12:51;;;;;;;7.97;4.50;;;8.00;1.00;;;;;;4929212;28;20473;-77
2023/03/29 08:15:18;;;;;;;6.37;4.53;;;8.20;1.00;;;;;;4926319;28;20493;-77
2023/03/29 08:17:46;;;;;;;9.87;5.73;;;8.20;1.00;;;;;;4930781;28;20472;-77
2023/03/29 08:20:15;;;;;;;7.87;4.93;;;8.20;1.00;;;;;;4931404;28;20468;-76
2023/03/29 08:22:43;;;;;;;5.57;4.57;;;8.20;1.00;;;;;;4927539;28;20478;-77
2023/03/29 08:25:14;;;;;;;10.10;5.60;;;8.20;1.00;;;;;;4923304;28;20475;-77
2023/03/29 08:27:41;;;;;;;7.87;4.63;;;8.30;1.00;;;;;;4925856;28;20565;-76
2023/03/29 08:30:09;;;;;;;8.07;5.10;;;8.30;1.00;;;;;;4927658;28;20471;-76
2023/03/29 08:32:37;;;;;;;7.73;5.20;;;8.70;1.00;;;;;;4924823;28;20514;-76
2023/03/29 08:35:07;;;;;;;6.20;5.17;;;9.00;1.00;;;;;;4928446;29;20506;-76
2023/03/29 08:37:36;;;;;;;7.97;4.60;;;9.10;1.00;;;;;;4923338;28;20467;-78
2023/03/29 08:40:05;;;;;;;8.93;5.53;;;9.00;1.00;;;;;;4926067;28;20465;-75
2023/03/29 08:43:02;;;;;;;6.73;4.40;;;9.10;1.00;;;;;;4928771;29;20476;-76
2023/03/29 08:45:35;;;;;;;6.17;4.20;;;9.20;1.00;;;;;;4927907;28;21243;-79
2023/03/29 08:48:12;;;;;;;7.43;3.80;;;9.30;1.00;;;;;;4927404;29;20462;-80
2023/03/29 08:50:44;;;;;;;5.80;4.10;;;9.40;1.00;;;;;;4931253;28;20509;-80
2023/03/29 08:53:16;;;;;;;5.50;4.20;;;9.50;1.00;;;;;;4931174;28;20908;-81
2023/03/29 08:55:46;;;;;;;5.43;3.83;;;9.70;1.00;;;;;;4932449;28;20451;-81
2023/03/29 08:58:23;;;;;;;6.80;4.10;;;10.00;1.00;;;;;;4934993;28;20458;-80
2023/03/29 09:00:53;;;;;;;6.83;4.10;;;10.10;1.00;;;;;;4931496;28;20576;-80
2023/03/29 09:03:23;;;;;;;4.03;3.57;;;10.20;1.00;;;;;;4928806;28;20818;-79
2023/03/29 09:05:56;;;;;;;6.57;3.87;;;10.10;1.00;;;;;;4933507;28;20474;-80
2023/03/29 09:08:26;;;;;;;8.97;3.90;;;10.10;1.00;;;;;;4933791;28;20482;-80
2023/03/29 09:11:11;;;;;;;4.67;3.60;;;10.20;1.00;;;;;;4929059;28;20487;-79
2023/03/29 09:13:46;;;;;;;9.50;4.27;;;10.50;1.00;;;;;;4927476;28;20466;-80
2023/03/29 09:16:24;;;;;;;4.40;4.00;;;10.90;1.00;;;;;;4930471;28;20533;-80
2023/03/29 09:19:06;;;;;;;4.73;4.13;;;11.60;1.00;;;;;;4923725;28;20469;-79
2023/03/29 09:21:40;;;;;;;7.03;4.23;;;12.40;1.00;;;;;;4927076;28;20459;-80
2023/03/29 09:24:43;;;;;;;7.53;4.23;;;12.90;1.00;;;;;;4928477;28;20534;-80
2023/03/29 09:27:15;;;;;;;10.27;3.43;;;13.20;1.00;;;;;;4919905;28;20503;-80
2023/03/29 09:30:07;;;;;;;5.10;3.57;;;12.70;1.00;;;;;;4929065;28;21074;-80
2023/03/29 09:32:42;;;;;;;6.70;4.23;;;12.70;1.00;;;;;;4926121;28;20439;-78
2023/03/29 09:35:18;;;;;;;4.80;4.10;;;12.30;1.00;;;;;;4929683;28;20970;-80
2023/03/29 09:37:47;;;;;;;4.67;4.20;;;12.60;1.00;;;;;;4931228;28;20869;-81
2023/03/29 09:40:21;;;;;;;5.00;4.50;;;13.00;1.00;;;;;;4930480;28;20454;-80
2023/03/29 09:42:51;;;;;;;4.97;3.30;;;13.90;1.00;;;;;;4930644;28;20485;-81
2023/03/29 09:45:20;;;;;;;5.00;3.90;;;14.60;1.00;;;;;;4934262;28;20468;-81
2023/03/29 09:47:51;;;;;;;5.67;4.33;;;15.30;1.00;;;;;;4928136;28;20481;-81
2023/03/29 09:50:22;;;;;;;4.20;3.80;;;16.30;1.00;;;;;;4934021;28;21105;-79
2023/03/29 09:52:50;;;;;;;6.20;4.03;;;16.50;1.00;;;;;;4926740;28;20461;-79
2023/03/29 09:55:22;;;;;;;3.63;3.07;;;16.70;1.00;;;;;;4932582;28;20560;-79
2023/03/29 09:57:50;;;;;;;4.37;3.80;;;16.90;1.00;;;;;;4927321;28;20565;-79
2023/03/29 10:00:19;;;;;;;4.47;4.07;;;17.80;1.00;;;;;;4930409;28;20519;-78
2023/03/29 10:02:52;;;;;;;4.27;3.40;;;18.80;1.00;;;;;;4930576;28;20483;-79
2023/03/29 10:05:20;;;;;;;4.03;3.63;;;19.00;1.00;;;;;;4929933;29;20600;-80
2023/03/29 10:07:51;;;;;;;4.90;3.57;;;18.00;1.00;;;;;;4925672;28;20490;-79
2023/03/29 10:10:25;;;;;;;3.90;3.60;;;18.40;1.00;;;;;;4929796;29;21227;-80
2023/03/29 10:12:56;;;;;;;4.70;3.60;;;19.90;1.00;;;;;;4927285;28;20484;-80
2023/03/29 10:15:29;;;;;;;7.33;3.97;;;20.40;1.00;;;;;;4928682;28;20995;-79
2023/03/29 10:18:09;;;;;;;3.50;3.20;;;20.80;1.00;;;;;;4918109;28;20453;-79
2023/03/29 10:20:39;;;;;;;4.03;3.63;;;20.60;1.00;;;;;;4930171;29;20460;-78
2023/03/29 10:23:09;;;;;;;5.10;3.53;;;19.00;1.00;;;;;;4929572;28;20445;-81
2023/03/29 10:25:40;;;;;;;3.60;2.97;;;18.50;1.00;;;;;;4931042;28;20523;-78
2023/03/29 10:28:12;;;;;;;4.03;3.33;;;19.60;1.00;;;;;;4928083;28;21039;-79
2023/03/29 10:30:41;;;;;;;4.47;3.03;;;20.50;1.00;;;;;;4929625;28;20473;-79
2023/03/29 10:33:17;;;;;;;7.60;3.53;;;20.30;1.00;;;;;;4926589;28;20596;-78
2023/03/29 10:35:47;;;;;;;4.27;3.87;;;19.70;1.00;;;;;;4929416;28;20467;-79
2023/03/29 10:38:18;;;;;;;7.80;4.43;;;19.00;1.00;;;;;;4930719;28;20582;-79
2023/03/29 10:40:47;;;;;;;4.00;3.43;;;19.20;1.00;;;;;;4919499;28;20477;-79
2023/03/29 10:43:21;;;;;;;3.87;3.57;;;19.80;1.00;;;;;;4928087;28;21465;-79
2023/03/29 10:45:59;;;;;;;4.70;3.60;;;19.60;1.00;;;;;;4929268;28;20471;-79
2023/03/29 10:48:30;;;;;;;4.20;3.80;;;20.20;1.00;;;;;;4930987;28;20489;-80
2023/03/29 10:51:00;;;;;;;5.03;3.83;;;19.40;1.00;;;;;;4922419;29;20554;-79
2023/03/29 10:53:31;;;;;;;5.27;4.43;;;18.50;1.00;;;;;;4934291;29;20990;-78
2023/03/29 10:56:11;;;;;;;4.90;4.40;;;17.50;1.00;;;;;;4934714;29;20458;-78
2023/03/29 10:58:52;;;;;;;5.10;4.17;;;17.10;1.00;;;;;;4934460;28;20505;-79
2023/03/29 11:01:27;;;;;;;7.00;4.40;;;16.20;1.00;;;;;;4936262;28;21016;-79
2023/03/29 11:04:15;;;;;;;5.77;4.10;;;15.00;1.00;;;;;;4934270;28;21056;-79
2023/03/29 11:06:47;;;;;;;7.43;5.07;;;14.40;1.00;;;;;;4916318;29;20463;-80
2023/03/29 11:09:23;;;;;;;5.17;4.67;;;13.30;1.00;;;;;;4932825;28;20532;-80
2023/03/29 11:12:04;;;;;;;4.97;4.47;;;12.80;1.00;;;;;;4931712;28;20472;-78
2023/03/29 11:14:41;;;;;;;7.80;5.23;;;12.50;1.00;;;;;;4930608;28;20467;-77
2023/03/29 11:17:23;;;;;;;4.40;4.00;;;12.90;1.00;;;;;;4928679;28;20496;-77
2023/03/29 11:20:02;;;;;;;7.83;5.97;;;13.10;1.00;;;;;;4930070;28;20479;-81
2023/03/29 11:22:41;;;;;;;4.77;4.37;;;13.00;1.00;;;;;;4937568;29;20447;-81
2023/03/29 11:25:29;;;;;;;5.10;4.50;;;13.00;1.00;;;;;;4932427;28;20478;-82
2023/03/29 11:28:06;;;;;;;6.70;4.97;;;13.10;1.00;;;;;;4929721;28;21849;-81
2023/03/29 11:30:42;;;;;;;4.30;4.00;;;13.00;1.00;;;;;;4933022;28;20460;-81
2023/03/29 11:33:20;;;;;;;7.20;3.83;;;13.20;1.00;;;;;;4914037;28;20840;-82
2023/03/29 11:35:55;;;;;;;5.10;4.60;;;13.40;1.00;;;;;;4933703;28;20511;-80
2023/03/29 11:38:29;;;;;;;5.17;4.40;;;13.40;1.00;;;;;;4931503;28;20459;-81
2023/03/29 11:41:03;;;;;;;4.00;3.60;;;13.40;1.00;;;;;;4936909;28;20546;-81
2023/03/29 11:43:35;;;;;;;4.33;3.93;;;12.80;1.00;;;;;;4933664;29;20445;-81
2023/03/29 11:46:09;;;;;;;4.83;4.30;;;13.10;1.00;;;;;;4932054;28;21356;-80
2023/03/29 11:48:44;;;;;;;4.83;4.40;;;13.80;1.00;;;;;;4928962;28;20435;-81
2023/03/29 11:51:16;;;;;;;6.53;4.60;;;14.40;1.00;;;;;;4934144;28;20456;-81
2023/03/29 11:53:55;;;;;;;4.37;3.97;;;14.70;1.00;;;;;;4926120;28;20485;-79
2023/03/29 11:56:28;;;;;;;5.90;5.37;;;14.80;1.00;;;;;;4932576;28;20492;-80
2023/03/29 11:59:03;;;;;;;5.97;4.30;;;14.70;1.00;;;;;;4934675;28;20473;-80
2023/03/29 12:01:38;;;;;;;5.00;4.60;;;14.80;1.00;;;;;;4930432;29;20497;-80
2023/03/29 12:04:13;;;;;;;5.27;4.73;;;14.60;1.00;;;;;;4934376;29;20487;-79
2023/03/29 12:06:46;;;;;;;5.50;5.00;;;14.40;1.00;;;;;;4932355;28;21039;-81
2023/03/29 12:09:25;;;;;;;5.30;4.23;;;14.30;1.00;;;;;;4936630;28;20903;-78
2023/03/29 12:11:59;;;;;;;4.33;3.93;;;15.00;1.00;;;;;;4933946;28;20473;-80
2023/03/29 12:14:35;;;;;;;4.47;4.07;;;14.90;1.00;;;;;;4926702;28;20545;-80
2023/03/29 12:17:05;;;;;;;7.00;4.90;;;14.60;1.00;;;;;;4917064;28;21349;-79
2023/03/29 12:19:40;;;;;;;4.70;3.90;;;15.30;1.00;;;;;;4935004;28;20639;-78
2023/03/29 12:22:08;;;;;;;4.87;4.40;;;16.60;1.00;;;;;;4922434;28;20556;-77
2023/03/29 12:24:43;;;;;;;5.10;4.70;;;16.90;1.00;;;;;;4929459;28;20508;-78
2023/03/29 12:27:25;;;;;;;5.40;5.00;;;17.40;1.00;;;;;;4929129;28;20458;-78
2023/03/29 12:30:33;;;;;;;4.70;4.20;;;17.20;1.00;;;;;;4926485;28;20568;-77
2023/03/29 12:33:26;;;;;;;5.00;4.53;;;17.00;1.00;;;;;;4930401;28;20507;-76
2023/03/29 12:36:09;;;;;;;5.30;4.40;;;16.60;1.00;;;;;;4931762;28;20446;-78
2023/03/29 12:38:38;;;;;;;5.10;4.60;;;16.00;1.00;;;;;;4932924;28;20882;-77
2023/03/29 12:41:15;;;;;;;5.47;4.80;;;15.40;1.00;;;;;;4922888;28;20469;-77
2023/03/29 12:43:42;;;;;;;5.03;4.63;;;14.50;1.00;;;;;;4917689;29;20462;-77
2023/03/29 12:46:16;;;;;;;6.47;4.90;;;14.00;1.00;;;;;;4933701;28;20472;-79
2023/03/29 12:48:52;;;;;;;5.87;5.37;;;13.80;1.00;;;;;;4932059;29;21794;-77
2023/03/29 12:51:28;;;;;;;6.23;5.00;;;13.50;1.00;;;;;;4930052;28;20473;-79
2023/03/29 12:54:02;;;;;;;5.60;5.10;;;13.50;1.00;;;;;;4928301;28;20483;-79
2023/03/29 12:56:39;;;;;;;4.50;4.10;;;13.40;1.00;;;;;;4931228;28;20554;-78
2023/03/29 12:59:25;;;;;;;4.73;4.23;;;13.50;1.00;;;;;;4931150;28;20563;-79
2023/03/29 13:01:59;;;;;;;6.53;4.63;;;13.50;1.00;;;;;;4929369;28;20685;-77
2023/03/29 13:04:38;;;;;;;7.03;5.50;;;13.50;1.00;;;;;;4931414;28;20480;-77
2023/03/29 13:07:14;;;;;;;5.77;5.10;;;13.60;1.00;;;;;;4931526;29;20460;-78
2023/03/29 13:09:51;;;;;;;6.13;4.90;;;13.60;1.00;;;;;;4931325;29;20468;-78
2023/03/29 13:12:26;;;;;;;7.13;5.13;;;13.70;1.00;;;;;;4932174;29;20490;-78
2023/03/29 13:14:55;;;;;;;6.73;4.20;;;13.80;1.00;;;;;;4929599;29;20481;-77
2023/03/29 13:17:34;;;;;;;4.73;4.23;;;13.80;1.00;;;;;;4937142;28;20468;-79
2023/03/29 13:20:24;;;;;;;4.80;4.40;;;13.90;1.00;;;;;;4930677;28;20491;-78
2023/03/29 13:23:03;;;;;;;6.00;5.40;;;13.80;1.00;;;;;;4932757;29;20489;-80
2023/03/29 13:25:47;;;;;;;7.50;4.30;;;13.60;1.00;;;;;;4932311;28;20571;-79